Time;durP1;ratioP1;P1;durP2;ratioP2;P2;SDS_P1;SDS_P2;PMS_P1;PMS_P2;Temp;Humidity;BMP_temperature;BMP_pressure;BME280_temperature;BME280_humidity;BME280_pressure;Samples;Min_cycle;Max_cycle;Signal;HPM_P1;HPM_P2
2021/05/15 07:26:31;;;;;;;2.80;0.50;;;;;;;;;;5034856;27;55589;-57
2021/05/15 07:28:57;;;;;;;1.83;0.60;;;;;;;;;;5041685;28;20316;-53
2021/05/15 07:31:23;;;;;;;3.78;0.80;;;;;;;;;;5038850;28;20037;-54
2021/05/15 07:33:49;;;;;;;1.73;0.57;;;;;;;;;;5038712;28;20053;-63
2021/05/15 07:36:17;;;;;;;2.85;0.70;;;;;;;;;;5041584;28;20044;-58
2021/05/15 07:39:40;;;;;;;7.55;1.40;;;;;;;24.23;36.93;97563.97;5017616;28;54409;-57
2021/05/15 07:42:06;;;;;;;2.17;0.43;;;;;;;24.11;37.34;97573.16;4995134;28;20360;-59
2021/05/15 07:44:31;;;;;;;1.80;0.47;;;;;;;23.61;37.32;97574.13;4991589;28;20245;-59
2021/05/15 07:46:57;;;;;;;3.50;0.50;;;;;;;23.35;38.16;97566.63;5001153;28;20029;-60
2021/05/15 07:49:22;;;;;;;2.13;0.57;;;;;;;22.99;38.60;97565.25;5086587;23;20047;-65
2021/05/15 07:51:50;;;;;;;1.17;0.30;;;;;;;22.81;38.56;97565.00;4978024;28;20123;-65
2021/05/15 07:54:15;;;;;;;3.40;0.60;;;;;;;22.58;39.10;97565.25;4981641;28;20135;-65
2021/05/15 07:56:41;;;;;;;2.28;0.75;;;;;;;22.27;40.13;97566.09;4979795;28;20026;-65
2021/05/15 07:59:06;;;;;;;1.65;0.65;;;;;;;22.07;40.45;97558.81;4980434;28;20209;-65
2021/05/15 08:01:31;;;;;;;1.30;0.40;;;;;;;21.96;40.94;97561.56;4977602;28;20054;-65
2021/05/15 08:03:57;;;;;;;0.50;0.32;;;;;;;21.89;40.88;97563.03;4980224;28;20034;-65
2021/05/15 08:06:22;;;;;;;0.95;0.43;;;;;;;21.90;40.44;97556.69;4979575;28;20015;-65
2021/05/15 08:08:47;;;;;;;2.78;0.70;;;;;;;21.89;40.33;97560.34;4981160;28;20187;-65
2021/05/15 08:11:13;;;;;;;1.23;0.60;;;;;;;21.82;40.66;97559.97;4981294;28;20018;-65
2021/05/15 08:13:39;;;;;;;1.77;0.55;;;;;;;21.78;40.58;97557.69;4980133;28;20034;-65
2021/05/15 08:16:05;;;;;;;1.80;0.50;;;;;;;21.75;40.59;97557.94;4981219;28;20086;-65
2021/05/15 08:18:30;;;;;;;1.60;0.60;;;;;;;21.72;40.85;97558.13;4979658;28;20221;-65
2021/05/15 08:20:56;;;;;;;1.25;0.43;;;;;;;21.65;40.79;97562.28;4980612;28;20038;-65
2021/05/15 08:23:21;;;;;;;3.95;0.60;;;;;;;21.64;41.00;97556.06;4979546;28;20027;-65
2021/05/15 08:25:47;;;;;;;1.40;0.60;;;;;;;21.58;41.18;97561.09;4979993;28;20023;-65
2021/05/15 08:28:14;;;;;;;2.65;0.80;;;;;;;21.56;41.16;97557.66;4980902;28;20058;-65
2021/05/15 08:30:43;;;;;;;3.40;0.68;;;;;;;21.53;41.28;97557.91;4981119;28;20019;-65
2021/05/15 08:33:09;;;;;;;2.58;1.10;;;;;;;21.52;41.12;97553.53;4980406;28;20022;-65
2021/05/15 08:35:35;;;;;;;2.63;0.80;;;;;;;21.51;41.17;97554.53;4980767;28;20037;-65
2021/05/15 08:38:02;;;;;;;3.30;0.70;;;;;;;21.51;41.20;97544.66;4978187;28;20194;-65
2021/05/15 08:40:28;;;;;;;3.95;0.85;;;;;;;21.53;41.16;97541.84;4978293;28;20053;-65
2021/05/15 08:42:55;;;;;;;1.38;0.70;;;;;;;21.52;41.23;97540.16;4979055;28;20031;-65
2021/05/15 08:45:23;;;;;;;8.23;0.88;;;;;;;21.49;41.31;97545.75;4979109;28;20027;-65
2021/05/15 08:47:50;;;;;;;7.10;0.90;;;;;;;21.49;41.15;97535.03;4980338;28;20058;-65
2021/05/15 08:50:19;;;;;;;4.05;0.50;;;;;;;21.49;41.27;97540.41;4971467;28;20047;-65
2021/05/15 09:23:51;;;;;;;3.72;1.70;;;;;;;15.60;62.25;97571.28;5059674;28;20713;-66
2021/05/15 09:26:22;;;;;;;5.82;1.50;;;;;;;16.06;62.10;97571.22;5055416;28;20029;-66
2021/05/15 09:28:48;;;;;;;7.10;1.88;;;;;;;16.37;59.58;97580.91;5058050;28;20037;-66
2021/05/15 09:31:27;;;;;;;3.17;1.05;;;;;;;16.29;57.61;97568.06;5058133;28;20025;-66
2021/05/15 09:33:55;;;;;;;4.90;1.30;;;;;;;15.99;57.39;97561.03;5076925;28;20307;-66
2021/05/15 09:36:22;;;;;;;5.20;1.30;;;;;;;16.16;56.46;97567.06;5077653;28;20032;-66
2021/05/15 09:39:12;;;;;;;3.72;0.90;;;;;;;16.11;57.97;97553.19;5078331;28;20027;-66
2021/05/15 09:42:05;;;;;;;3.65;0.80;;;;;;;16.01;56.40;97546.72;5075141;28;20033;-66
2021/05/15 09:44:36;;;;;;;4.30;1.10;;;;;;;16.14;56.80;97547.72;5038005;28;20049;-66
2021/05/15 09:47:03;;;;;;;2.78;1.00;;;;;;;16.17;56.68;97544.88;5038411;28;20036;-66
2021/05/15 09:49:32;;;;;;;1.88;0.68;;;;;;;15.67;56.05;97539.00;5054401;28;20032;-66
2021/05/15 09:52:06;;;;;;;5.03;0.93;;;;;;;15.65;57.57;97543.53;5061619;28;20088;-66
2021/05/15 09:54:39;;;;;;;2.78;0.90;;;;;;;15.43;56.71;97542.16;5079928;28;20219;-66
2021/05/15 09:57:10;;;;;;;5.85;1.58;;;;;;;14.99;55.05;97552.53;5079539;28;20016;-66
2021/05/15 09:59:44;;;;;;;2.38;0.70;;;;;;;14.85;57.95;97539.19;5075339;28;20323;-66
2021/05/15 10:02:12;;;;;;;6.47;0.95;;;;;;;14.52;57.08;97540.94;5076454;28;20045;-66
2021/05/15 10:04:40;;;;;;;1.58;0.77;;;;;;;14.31;57.57;97542.06;5045348;28;20224;-66
2021/05/15 10:07:25;;;;;;;2.80;0.70;;;;;;;14.31;59.16;97536.78;5039759;28;20088;-66
2021/05/15 10:09:51;;;;;;;2.53;0.85;;;;;;;14.22;59.00;97539.84;5038267;28;20228;-66
2021/05/15 10:12:17;;;;;;;6.30;1.08;;;;;;;14.08;58.07;97547.66;5043273;28;20009;-66
2021/05/15 10:14:43;;;;;;;3.65;0.88;;;;;;;13.92;59.97;97547.53;5059519;28;20033;-66
2021/05/15 10:17:08;;;;;;;2.38;0.70;;;;;;;13.87;61.09;97540.78;5059727;28;20021;-66
2021/05/15 10:19:34;;;;;;;4.07;0.93;;;;;;;13.76;59.99;97533.34;5059479;28;20088;-66
2021/05/15 10:22:00;;;;;;;4.10;1.20;;;;;;;13.68;60.76;97529.38;5057843;28;20045;-66
2021/05/15 10:24:30;;;;;;;2.47;0.88;;;;;;;13.74;62.16;97526.44;5039135;28;20052;-66
2021/05/15 10:27:14;;;;;;;4.13;1.48;;;;;;;13.71;59.15;97526.59;5039573;28;20255;-66
2021/05/15 10:29:53;;;;;;;3.97;1.05;;;;;;;13.80;61.37;97512.91;5039474;28;20080;-67
2021/05/15 10:32:20;;;;;;;3.28;0.50;;;;;;;13.75;61.58;97514.91;5042650;28;20020;-67
2021/05/15 10:34:48;;;;;;;2.05;0.60;;;;;;;13.70;62.54;97522.25;5033465;28;20021;-67
2021/05/15 10:37:19;;;;;;;3.65;0.80;;;;;;;13.56;62.96;97516.75;5024582;28;20033;-66
2021/05/15 10:39:48;;;;;;;1.92;0.82;;;;;;;13.65;63.11;97518.97;5025612;28;20055;-66
2021/05/15 10:42:14;;;;;;;3.75;0.93;;;;;;;13.69;62.88;97521.38;5028347;28;20156;-66
2021/05/15 10:44:42;;;;;;;2.42;0.70;;;;;;;13.52;63.35;97508.13;5028199;28;20320;-66
2021/05/15 10:47:08;;;;;;;5.28;0.90;;;;;;;13.37;64.55;97503.59;5025609;28;20097;-66
2021/05/15 10:49:34;;;;;;;3.72;1.05;;;;;;;13.44;64.39;97501.50;5025760;28;20028;-66
2021/05/15 10:52:15;;;;;;;4.30;1.08;;;;;;;13.28;62.59;97487.31;5026218;28;20029;-66
2021/05/15 10:54:42;;;;;;;6.55;1.65;;;;;;;13.36;63.33;97479.88;5006103;28;20060;-66
2021/05/15 10:57:11;;;;;;;6.07;1.10;;;;;;;13.50;64.02;97486.19;5024193;28;20025;-66
2021/05/15 10:59:38;;;;;;;4.20;1.40;;;;;;;13.64;63.35;97480.25;5025624;28;20041;-66
2021/05/15 11:02:12;;;;;;;3.30;0.95;;;;;;;13.59;62.39;97477.81;5025509;28;20026;-66
2021/05/15 11:04:49;;;;;;;4.15;1.10;;;;;;;13.91;63.65;97473.53;5045467;28;20021;-66
2021/05/15 11:07:15;;;;;;;1.73;0.75;;;;;;;13.94;62.56;97482.19;5045262;28;20083;-66
2021/05/15 11:09:56;;;;;;;5.70;2.00;;;;;;;13.91;61.14;97484.13;5045249;28;20049;-66
2021/05/15 11:12:22;;;;;;;4.03;0.95;;;;;;;13.85;57.22;97479.16;5042357;28;20052;-66
2021/05/15 11:14:58;;;;;;;5.80;1.10;;;;;;;13.63;57.63;97479.38;5025562;28;20017;-66
2021/05/15 11:17:27;;;;;;;2.80;0.68;;;;;;;13.69;60.91;97483.50;5024809;28;20029;-66
2021/05/15 11:19:59;;;;;;;5.43;0.80;;;;;;;13.66;57.31;97473.94;5025179;28;20092;-66
2021/05/15 11:22:44;;;;;;;1.25;0.80;;;;;;;14.06;60.49;97467.47;5027427;28;20034;-66
2021/05/15 11:25:12;;;;;;;3.78;0.60;;;;;;;14.48;59.50;97454.69;5045175;28;20024;-66
2021/05/15 11:27:48;;;;;;;3.58;0.80;;;;;;;14.65;58.31;97452.81;5044095;28;20013;-66
2021/05/15 11:30:22;;;;;;;2.72;0.68;;;;;;;14.69;57.60;97437.63;5044495;28;20044;-66
2021/05/15 11:33:07;;;;;;;3.42;0.60;;;;;;;15.14;57.25;97443.03;5039009;28;20028;-66
2021/05/15 11:35:47;;;;;;;3.88;1.00;;;;;;;15.09;55.20;97426.53;5024953;28;20029;-66
2021/05/15 11:38:21;;;;;;;3.03;0.80;;;;;;;15.43;55.49;97415.75;5024912;28;20029;-66
2021/05/15 11:40:46;;;;;;;5.35;0.75;;;;;;;15.54;55.04;97402.75;5024894;28;20026;-66
2021/05/15 11:43:24;;;;;;;2.33;0.60;;;;;;;16.11;53.88;97393.94;5032801;28;20331;-66
2021/05/15 11:45:51;;;;;;;2.08;0.70;;;;;;;15.93;53.70;97400.38;5026252;28;20084;-66
2021/05/15 11:48:20;;;;;;;3.28;0.82;;;;;;;16.12;52.99;97381.53;5024672;28;20052;-67
2021/05/15 11:51:06;;;;;;;2.92;0.70;;;;;;;15.74;52.82;97380.34;5024640;28;20090;-67
2021/05/15 11:53:37;;;;;;;1.92;0.70;;;;;;;15.16;51.76;97396.13;5035528;28;20022;-67
2021/05/15 11:56:15;;;;;;;5.38;0.93;;;;;;;15.10;55.50;97396.47;5044008;28;20018;-66
2021/05/15 11:58:51;;;;;;;2.10;0.80;;;;;;;14.51;53.84;97396.25;5044213;28;20087;-67
2021/05/15 12:01:18;;;;;;;1.40;0.60;;;;;;;14.64;55.52;97397.31;5044244;28;20017;-67
2021/05/15 12:03:44;;;;;;;2.05;0.70;;;;;;;14.36;54.75;97386.50;5030235;28;20205;-66
2021/05/15 12:06:14;;;;;;;3.33;0.73;;;;;;;14.39;56.09;97375.75;5044052;28;20045;-66
2021/05/15 12:08:40;;;;;;;4.00;0.88;;;;;;;14.38;57.23;97380.19;5027940;28;20328;-66
2021/05/15 12:11:06;;;;;;;1.40;0.50;;;;;;;14.22;57.18;97379.28;5024122;28;20029;-67
2021/05/15 12:13:32;;;;;;;4.60;0.90;;;;;;;14.11;55.35;97375.50;5033729;28;20091;-68
2021/05/15 12:15:57;;;;;;;3.42;0.98;;;;;;;13.95;55.79;97374.63;5044250;28;20243;-67
2021/05/15 12:18:23;;;;;;;4.25;0.80;;;;;;;14.10;56.42;97371.13;5028477;28;20017;-67
2021/05/15 12:20:50;;;;;;;4.07;0.70;;;;;;;14.38;58.12;97374.03;5023469;28;20384;-67
2021/05/15 12:23:26;;;;;;;4.57;0.90;;;;;;;14.38;58.37;97363.47;5032019;28;20355;-67
2021/05/15 12:25:59;;;;;;;3.35;0.68;;;;;;;14.44;56.61;97374.59;5044076;28;20022;-67
2021/05/15 12:28:26;;;;;;;2.05;0.63;;;;;;;14.39;56.60;97359.84;5043997;28;20335;-67
2021/05/15 12:30:52;;;;;;;2.50;0.70;;;;;;;14.33;56.15;97365.50;5043679;28;20048;-67
2021/05/15 12:33:25;;;;;;;6.65;1.35;;;;;;;14.40;57.86;97361.59;5035960;28;20129;-67
2021/05/15 12:36:01;;;;;;;4.90;0.80;;;;;;;14.16;56.58;97362.88;5023658;28;20044;-67
2021/05/15 12:38:28;;;;;;;1.98;0.80;;;;;;;14.32;56.75;97353.19;5023790;28;20343;-66
2021/05/15 12:41:08;;;;;;;2.53;0.90;;;;;;;14.22;55.89;97355.47;5022697;28;20270;-67
2021/05/15 12:43:34;;;;;;;2.78;0.70;;;;;;;14.18;56.57;97351.25;5033176;28;20013;-67
2021/05/15 12:46:06;;;;;;;2.58;0.90;;;;;;;14.35;57.44;97353.03;5043434;28;20036;-67
2021/05/15 12:48:41;;;;;;;5.38;1.00;;;;;;;14.49;56.45;97339.91;5033799;28;20024;-67
2021/05/15 12:51:12;;;;;;;5.18;1.00;;;;;;;14.53;56.25;97342.28;5023562;28;20028;-68
2021/05/15 12:53:38;;;;;;;2.20;0.85;;;;;;;14.73;57.65;97338.53;5033162;28;20020;-67
2021/05/15 12:56:04;;;;;;;4.28;1.48;;;;;;;14.61;54.89;97332.13;5043311;28;20028;-67
2021/05/15 12:58:30;;;;;;;3.15;0.80;;;;;;;14.70;56.63;97339.56;5027859;28;20025;-67
2021/05/15 13:00:59;;;;;;;3.35;1.00;;;;;;;14.71;56.89;97341.25;5023421;28;20053;-67
2021/05/15 13:03:26;;;;;;;2.00;0.60;;;;;;;14.75;56.52;97331.38;5023352;28;20090;-67
2021/05/15 13:05:51;;;;;;;3.15;1.00;;;;;;;14.72;56.06;97332.38;5023424;28;20093;-67
2021/05/15 13:08:17;;;;;;;4.57;0.90;;;;;;;14.75;55.26;97321.59;5033115;28;20032;-67
2021/05/15 13:10:43;;;;;;;6.20;1.15;;;;;;;14.55;56.05;97316.59;5034683;28;20063;-68
2021/05/15 13:13:09;;;;;;;3.67;0.98;;;;;;;14.40;55.49;97316.59;5042717;28;20079;-68
2021/05/15 13:15:37;;;;;;;6.00;1.00;;;;;;;14.39;56.83;97318.38;5042984;28;20323;-67
2021/05/15 13:18:19;;;;;;;2.10;0.82;;;;;;;14.20;55.46;97316.78;5032771;28;20018;-68
2021/05/15 13:20:45;;;;;;;2.40;0.80;;;;;;;14.29;55.19;97311.88;5023011;28;20033;-67
2021/05/15 13:23:11;;;;;;;1.40;0.50;;;;;;;14.21;57.50;97307.91;5023071;28;20042;-67
2021/05/15 13:25:37;;;;;;;3.08;0.60;;;;;;;14.23;57.51;97314.00;5022821;28;20366;-67
2021/05/15 13:28:04;;;;;;;2.70;0.60;;;;;;;14.11;58.85;97312.00;5026924;28;20018;-67
2021/05/15 13:30:29;;;;;;;1.80;0.70;;;;;;;14.20;56.30;97316.78;5021598;28;20017;-67
2021/05/15 13:32:55;;;;;;;1.48;0.60;;;;;;;14.07;57.08;97313.09;5022610;28;20100;-67
2021/05/15 13:35:20;;;;;;;1.35;0.70;;;;;;;14.10;57.51;97310.28;5022672;28;20022;-67
2021/05/15 13:37:46;;;;;;;1.30;0.50;;;;;;;14.04;57.34;97310.59;5029133;28;20026;-67
2021/05/15 13:40:12;;;;;;;1.65;0.70;;;;;;;13.90;57.00;97302.56;5035926;28;20017;-67
2021/05/15 13:42:37;;;;;;;2.47;1.05;;;;;;;13.86;58.03;97295.75;5022475;28;20023;-67
2021/05/15 13:45:03;;;;;;;3.40;0.85;;;;;;;13.91;58.05;97293.69;5022835;28;20021;-67
2021/05/15 13:47:29;;;;;;;2.50;0.80;;;;;;;13.80;57.60;97290.78;5026819;28;20084;-67
2021/05/15 13:49:54;;;;;;;1.60;0.60;;;;;;;13.95;57.65;97304.03;5042741;28;20267;-67
2021/05/15 13:52:19;;;;;;;2.72;1.00;;;;;;;14.09;60.80;97298.00;5027469;28;20026;-68
2021/05/15 13:54:45;;;;;;;2.05;0.90;;;;;;;14.03;62.00;97303.63;5021774;28;20021;-67
2021/05/15 13:57:10;;;;;;;3.00;1.10;;;;;;;13.84;62.80;97302.91;5023677;28;20022;-67
2021/05/15 13:59:36;;;;;;;2.45;0.82;;;;;;;13.63;63.13;97289.03;5042932;28;20013;-67
2021/05/15 14:02:01;;;;;;;2.72;1.00;;;;;;;13.55;63.89;97295.66;5042640;28;20224;-67
2021/05/15 14:04:28;;;;;;;2.28;0.90;;;;;;;13.62;63.77;97287.31;5041203;28;20087;-67
2021/05/15 14:06:53;;;;;;;2.50;1.00;;;;;;;13.71;63.79;97283.31;5021840;28;20032;-67
2021/05/15 14:09:19;;;;;;;3.10;1.10;;;;;;;13.67;63.20;97279.16;5023783;28;20014;-67
2021/05/15 14:11:44;;;;;;;4.25;0.88;;;;;;;13.63;62.66;97282.88;5025830;28;20025;-67
2021/05/15 14:14:10;;;;;;;3.78;1.50;;;;;;;13.60;63.19;97269.84;5026382;28;20041;-67
2021/05/15 14:16:35;;;;;;;2.47;1.00;;;;;;;13.63;64.97;97267.88;5026450;28;20029;-67
2021/05/15 14:19:00;;;;;;;2.35;1.08;;;;;;;13.63;62.98;97261.72;5025740;28;20037;-69
2021/05/15 14:21:26;;;;;;;4.00;1.15;;;;;;;13.68;63.26;97257.06;5026397;28;20018;-67
2021/05/15 14:23:51;;;;;;;5.00;1.20;;;;;;;13.71;61.71;97259.53;5026253;28;20044;-67
2021/05/15 14:26:17;;;;;;;2.20;0.98;;;;;;;13.72;64.18;97263.88;5026103;28;20026;-67
2021/05/15 14:28:42;;;;;;;1.35;1.00;;;;;;;13.68;63.20;97254.41;5038969;28;20045;-66
2021/05/15 14:31:08;;;;;;;1.08;0.85;;;;;;;13.82;63.57;97250.09;5045692;28;20026;-66
2021/05/15 14:33:34;;;;;;;3.05;1.17;;;;;;;13.82;61.11;97246.56;5040212;28;20022;-66
2021/05/15 14:35:59;;;;;;;2.35;0.93;;;;;;;13.70;62.08;97242.81;5026018;28;20029;-66
2021/05/15 14:38:25;;;;;;;4.28;0.88;;;;;;;13.61;62.67;97226.59;5025984;28;20028;-66
2021/05/15 14:40:50;;;;;;;2.33;0.93;;;;;;;13.59;63.81;97249.59;5025790;28;20052;-66
2021/05/15 14:43:16;;;;;;;3.33;0.95;;;;;;;13.53;64.25;97249.91;5025931;28;20029;-66
2021/05/15 14:45:43;;;;;;;4.90;1.48;;;;;;;13.32;65.37;97237.84;5025596;28;20025;-66
2021/05/15 14:48:09;;;;;;;2.83;0.90;;;;;;;13.26;66.06;97243.44;5032039;28;20025;-66
2021/05/15 14:50:35;;;;;;;2.00;0.80;;;;;;;13.17;66.58;97236.00;5025798;28;20056;-67
2021/05/15 14:53:00;;;;;;;4.40;0.75;;;;;;;13.15;66.29;97236.06;5041064;28;20029;-67
2021/05/15 14:55:26;;;;;;;1.58;0.70;;;;;;;13.18;66.73;97233.28;5025722;28;20033;-67
2021/05/15 14:57:51;;;;;;;6.03;0.73;;;;;;;13.22;66.48;97245.38;5030543;28;20096;-67
2021/05/15 15:00:17;;;;;;;7.50;1.05;;;;;;;13.35;66.05;97232.41;5045320;28;20024;-66
2021/05/15 15:02:42;;;;;;;3.53;0.80;;;;;;;13.59;65.73;97239.03;5045370;28;20017;-66
2021/05/15 15:05:09;;;;;;;1.15;0.60;;;;;;;13.66;65.56;97245.69;5045273;28;20028;-66
2021/05/15 15:07:34;;;;;;;3.00;0.82;;;;;;;13.67;65.09;97236.84;5042365;28;20058;-67
2021/05/15 15:10:00;;;;;;;1.98;0.82;;;;;;;13.49;65.18;97232.53;5025283;28;20089;-67
2021/05/15 15:12:26;;;;;;;3.83;0.82;;;;;;;13.56;65.97;97244.47;5025255;28;20033;-67
2021/05/15 15:14:52;;;;;;;3.00;0.80;;;;;;;13.52;64.36;97233.22;5025266;28;20028;-67
2021/05/15 15:17:17;;;;;;;1.60;0.70;;;;;;;13.63;65.15;97243.22;5025327;28;20052;-67
2021/05/15 15:19:43;;;;;;;3.55;0.50;;;;;;;13.58;65.38;97247.91;5005814;28;20033;-67
2021/05/15 15:22:09;;;;;;;0.40;0.40;;;;;;;13.63;65.38;97241.44;5005849;28;20026;-67
2021/05/15 15:24:34;;;;;;;3.35;0.73;;;;;;;13.66;65.52;97248.34;5005267;28;20018;-67
2021/05/15 15:27:00;;;;;;;3.05;0.63;;;;;;;13.87;64.38;97245.41;5005408;28;20092;-67
2021/05/15 15:29:25;;;;;;;4.82;0.70;;;;;;;14.01;64.07;97236.69;5025179;28;20018;-67
2021/05/15 15:31:51;;;;;;;1.27;0.60;;;;;;;14.03;63.15;97245.41;5025231;28;20021;-67
2021/05/15 15:34:17;;;;;;;2.60;0.80;;;;;;;14.08;63.50;97227.50;5023849;28;20028;-67
2021/05/15 15:36:43;;;;;;;1.10;0.60;;;;;;;14.31;63.59;97230.63;5024540;28;20022;-67
2021/05/15 15:39:08;;;;;;;1.55;0.50;;;;;;;14.21;63.34;97223.25;5029479;28;20380;-67
2021/05/15 15:41:34;;;;;;;0.40;0.40;;;;;;;14.32;62.47;97220.88;5024856;28;20032;-67
2021/05/15 15:44:00;;;;;;;2.67;0.50;;;;;;;14.23;63.19;97216.94;5024789;28;20026;-67
2021/05/15 15:46:25;;;;;;;0.65;0.60;;;;;;;14.36;63.46;97217.97;5024794;28;20018;-67
2021/05/15 15:48:51;;;;;;;0.55;0.50;;;;;;;14.49;64.23;97215.50;5036038;28;20088;-69
2021/05/15 15:51:16;;;;;;;1.90;0.57;;;;;;;14.57;63.75;97206.16;5044135;28;20021;-67
2021/05/15 15:53:43;;;;;;;1.13;0.60;;;;;;;14.61;63.61;97201.53;5043461;28;20021;-67
2021/05/15 15:56:09;;;;;;;2.70;0.50;;;;;;;14.39;62.24;97211.63;5044357;28;20025;-68
2021/05/15 15:58:35;;;;;;;0.95;0.60;;;;;;;14.49;62.78;97199.59;5035173;28;20209;-67
2021/05/15 16:01:00;;;;;;;0.57;0.40;;;;;;;14.47;61.21;97205.00;5025378;28;20022;-67
2021/05/15 16:03:26;;;;;;;1.00;0.43;;;;;;;14.38;62.07;97194.91;5025274;28;20013;-65
2021/05/15 16:05:52;;;;;;;1.73;0.60;;;;;;;14.35;61.64;97188.94;5025332;28;20068;-65
2021/05/15 16:08:18;;;;;;;1.40;0.50;;;;;;;14.29;62.66;97199.88;5031380;28;20013;-66
2021/05/15 16:10:44;;;;;;;0.47;0.38;;;;;;;14.38;61.82;97209.94;5044978;28;20032;-66
2021/05/15 16:13:10;;;;;;;0.68;0.50;;;;;;;14.41;61.89;97199.19;5044986;28;20048;-66
2021/05/15 16:15:40;;;;;;;0.40;0.40;;;;;;;14.32;61.61;97183.81;5044935;28;20021;-65
2021/05/15 16:18:06;;;;;;;2.55;0.50;;;;;;;14.46;61.60;97184.72;5040247;28;20033;-65
2021/05/15 16:20:33;;;;;;;1.77;0.60;;;;;;;14.49;60.40;97175.78;5023398;28;20030;-65
2021/05/15 16:22:58;;;;;;;0.88;0.50;;;;;;;14.45;61.84;97175.09;5004279;28;20234;-65
2021/05/15 16:25:25;;;;;;;4.32;0.77;;;;;;;14.48;60.75;97158.16;5004367;28;20025;-65
2021/05/15 16:27:51;;;;;;;1.55;0.75;;;;;;;14.46;61.22;97168.84;5023291;28;20025;-65
2021/05/15 16:30:17;;;;;;;4.20;0.60;;;;;;;14.36;61.24;97166.81;5024098;28;20041;-65
2021/05/15 16:32:43;;;;;;;2.63;0.70;;;;;;;14.23;61.30;97168.44;5023190;28;20045;-65
2021/05/15 16:35:09;;;;;;;3.92;0.80;;;;;;;14.31;60.97;97166.25;5023898;28;20220;-65
2021/05/15 16:37:36;;;;;;;3.33;0.70;;;;;;;14.26;60.80;97173.56;5023820;28;20021;-65
2021/05/15 16:40:03;;;;;;;2.58;0.63;;;;;;;14.34;60.99;97160.78;5042785;28;20041;-65
2021/05/15 16:42:28;;;;;;;4.95;1.00;;;;;;;14.49;61.09;97160.72;5043204;28;20013;-65
2021/05/15 16:44:54;;;;;;;2.92;1.15;;;;;;;14.59;61.22;97161.88;5043512;28;20032;-65
2021/05/15 16:47:19;;;;;;;2.90;0.82;;;;;;;14.48;60.80;97168.75;5037866;28;20017;-65
2021/05/15 16:49:48;;;;;;;3.65;0.70;;;;;;;14.42;60.56;97169.09;5040221;28;20044;-65
2021/05/15 16:52:15;;;;;;;3.53;0.75;;;;;;;14.31;60.56;97166.25;5043578;28;20334;-65
2021/05/15 16:54:40;;;;;;;1.90;0.80;;;;;;;14.29;60.54;97168.97;5038934;28;20053;-65
2021/05/15 16:57:05;;;;;;;1.65;0.65;;;;;;;14.15;61.24;97174.19;5023583;28;20025;-65
2021/05/15 16:59:31;;;;;;;5.82;1.30;;;;;;;13.92;61.41;97179.03;5037599;28;20271;-65
2021/05/15 17:01:58;;;;;;;1.90;1.02;;;;;;;13.87;62.70;97181.06;5043216;28;20085;-65
2021/05/15 17:04:23;;;;;;;2.63;0.88;;;;;;;13.73;61.87;97184.47;5029220;28;20254;-65
2021/05/15 17:06:49;;;;;;;4.75;0.95;;;;;;;13.69;62.99;97193.50;5022461;28;20021;-65
2021/05/15 17:09:15;;;;;;;4.35;0.90;;;;;;;13.71;62.69;97185.50;5026324;28;20063;-65
2021/05/15 17:11:41;;;;;;;5.25;0.70;;;;;;;13.49;62.79;97185.81;5022040;28;20025;-65
2021/05/15 17:14:07;;;;;;;2.38;0.73;;;;;;;13.52;63.08;97184.78;5022564;28;20025;-65
2021/05/15 17:16:32;;;;;;;2.60;0.90;;;;;;;13.45;63.38;97194.00;5022307;28;20248;-65
2021/05/15 17:18:57;;;;;;;4.97;0.90;;;;;;;13.32;63.47;97182.38;5029215;28;20097;-65
2021/05/15 17:21:23;;;;;;;4.22;0.98;;;;;;;13.39;63.35;97186.38;5023180;28;20053;-65
2021/05/15 17:23:49;;;;;;;5.00;0.88;;;;;;;13.30;63.63;97195.66;5023005;28;20104;-65
2021/05/15 17:26:18;;;;;;;4.53;1.27;;;;;;;13.29;64.58;97199.22;5024383;28;20029;-65
2021/05/15 17:28:45;;;;;;;3.55;0.60;;;;;;;13.18;67.14;97248.25;5022487;28;20033;-65
2021/05/15 17:31:11;;;;;;;2.40;0.70;;;;;;;12.66;70.02;97314.22;5022879;28;20018;-65
2021/05/15 17:33:36;;;;;;;3.03;0.50;;;;;;;11.87;71.63;97295.13;5022410;28;20033;-65
2021/05/15 17:36:02;;;;;;;2.05;0.52;;;;;;;11.41;73.39;97300.72;5022492;28;20040;-65
2021/05/15 17:38:28;;;;;;;3.03;0.57;;;;;;;10.85;73.95;97305.78;5022122;28;20028;-65
2021/05/15 17:40:53;;;;;;;6.05;0.93;;;;;;;10.78;75.39;97308.72;5022031;28;20026;-65
2021/05/15 17:43:19;;;;;;;5.28;0.50;;;;;;;10.49;75.41;97309.03;5022193;28;20144;-65
2021/05/15 17:45:44;;;;;;;1.92;0.63;;;;;;;10.34;77.03;97304.38;5026702;28;20030;-65
2021/05/15 17:48:11;;;;;;;3.55;0.70;;;;;;;10.25;77.90;97302.16;5031468;28;20022;-65
2021/05/15 17:50:37;;;;;;;3.15;0.70;;;;;;;10.09;78.49;97306.25;5026426;28;20044;-65
2021/05/15 17:53:03;;;;;;;1.55;0.52;;;;;;;9.93;78.46;97289.31;5026214;28;20317;-65
2021/05/15 17:55:28;;;;;;;2.22;0.63;;;;;;;10.00;78.68;97280.31;5026131;28;20018;-65
2021/05/15 17:57:54;;;;;;;4.07;0.70;;;;;;;10.00;78.58;97269.81;5031691;28;20216;-65
2021/05/15 18:00:20;;;;;;;8.15;0.98;;;;;;;10.11;79.90;97279.00;5026248;28;20336;-65
2021/05/15 18:02:45;;;;;;;4.32;1.35;;;;;;;10.14;78.72;97283.28;5026220;28;20247;-65
2021/05/15 18:05:11;;;;;;;2.47;0.77;;;;;;;10.10;78.48;97287.78;5025577;28;20022;-65
2021/05/15 18:07:37;;;;;;;4.43;0.88;;;;;;;10.04;78.79;97276.63;5030066;28;20320;-65
2021/05/15 18:10:04;;;;;;;2.63;0.73;;;;;;;10.04;79.05;97276.63;5029918;28;20029;-65
2021/05/15 18:12:29;;;;;;;5.18;0.82;;;;;;;10.10;78.73;97273.81;5036135;28;20030;-65
2021/05/15 18:14:55;;;;;;;3.15;1.30;;;;;;;10.02;78.69;97262.69;5046575;28;20089;-65
2021/05/15 18:17:20;;;;;;;2.78;1.92;;;;;;;9.92;79.10;97246.44;5041570;28;20224;-65
2021/05/15 18:19:46;;;;;;;4.88;1.35;;;;;;;9.98;78.86;97229.56;5026418;28;20026;-65
2021/05/15 18:22:14;;;;;;;5.20;1.33;;;;;;;9.94;79.75;97220.09;5026206;28;20283;-65
2021/05/15 18:24:40;;;;;;;6.57;1.17;;;;;;;9.87;81.16;97237.03;5026331;28;20314;-65
2021/05/15 18:27:05;;;;;;;6.28;1.27;;;;;;;9.92;80.40;97240.31;5026272;28;20045;-65
2021/05/15 18:29:31;;;;;;;5.78;0.90;;;;;;;10.07;79.91;97250.28;5043302;28;20079;-65
2021/05/15 18:31:56;;;;;;;2.85;0.75;;;;;;;10.09;80.51;97248.41;5045815;28;20017;-65
2021/05/15 18:34:22;;;;;;;2.38;0.52;;;;;;;10.12;80.32;97253.56;5045937;28;20029;-64
2021/05/15 18:36:48;;;;;;;3.55;0.90;;;;;;;10.12;79.49;97256.19;5045834;28;20017;-65
2021/05/15 18:39:14;;;;;;;2.40;0.73;;;;;;;10.14;80.28;97262.25;5031069;28;20028;-65
2021/05/15 18:41:41;;;;;;;3.50;0.80;;;;;;;10.07;79.92;97266.03;5025991;28;20038;-65
2021/05/15 18:44:07;;;;;;;6.57;0.95;;;;;;;10.16;80.85;97269.16;5025038;28;20018;-65
2021/05/15 18:46:33;;;;;;;3.20;0.65;;;;;;;10.26;79.78;97272.28;5025133;28;20263;-65
2021/05/15 18:49:00;;;;;;;6.97;0.80;;;;;;;10.18;79.71;97276.97;5028300;28;20026;-65
2021/05/15 18:51:28;;;;;;;4.97;0.90;;;;;;;10.21;79.27;97279.50;5025534;28;20017;-65
2021/05/15 18:53:54;;;;;;;2.70;0.70;;;;;;;10.11;80.34;97270.25;5024880;28;20201;-65
2021/05/15 18:56:20;;;;;;;3.40;0.65;;;;;;;9.94;80.74;97280.53;5024154;28;20021;-65
2021/05/15 18:58:46;;;;;;;3.00;0.90;;;;;;;9.91;80.52;97272.78;5025319;28;20029;-65
2021/05/15 19:01:12;;;;;;;6.80;1.00;;;;;;;9.87;80.67;97276.44;5025042;28;20301;-65
2021/05/15 19:03:39;;;;;;;5.40;0.70;;;;;;;9.84;80.53;97287.06;5025113;28;20020;-65
2021/05/15 19:06:07;;;;;;;2.88;0.70;;;;;;;9.75;80.66;97290.03;5025562;28;20026;-65
2021/05/15 19:08:37;;;;;;;2.55;0.90;;;;;;;9.78;81.21;97295.19;5027401;28;20022;-65
2021/05/15 19:11:03;;;;;;;3.90;0.77;;;;;;;9.80;80.84;97294.19;5024389;28;20075;-65
2021/05/15 19:13:30;;;;;;;3.17;0.80;;;;;;;9.76;81.23;97299.63;5025668;28;20030;-65
2021/05/15 19:15:56;;;;;;;5.50;0.80;;;;;;;9.78;82.41;97300.44;5025339;28;20084;-65
2021/05/15 19:18:22;;;;;;;2.05;0.70;;;;;;;9.86;82.02;97306.25;5028476;28;20028;-65
2021/05/15 19:20:49;;;;;;;6.78;0.90;;;;;;;9.88;81.59;97314.94;5028557;28;20335;-65
2021/05/15 19:23:14;;;;;;;5.07;0.90;;;;;;;9.90;81.01;97313.13;5028878;28;20033;-65
2021/05/15 19:25:40;;;;;;;1.73;0.60;;;;;;;9.81;81.42;97306.41;5024714;28;20214;-65
2021/05/15 19:28:07;;;;;;;4.65;0.70;;;;;;;9.70;81.32;97312.97;5024624;28;20025;-65
2021/05/15 19:30:33;;;;;;;4.22;1.00;;;;;;;9.62;81.48;97321.13;5018099;28;20085;-65
2021/05/15 19:32:58;;;;;;;3.20;0.70;;;;;;;9.59;80.79;97323.03;5028634;28;20025;-65
2021/05/15 19:35:26;;;;;;;4.53;0.88;;;;;;;9.49;81.74;97326.91;5024940;28;20063;-65